createdAt,value
2023-08-17T00:00:32.976Z,6.35
2023-08-17T00:03:00.762Z,6.68
2023-08-17T00:05:29.224Z,4.88
2023-08-17T00:07:57.054Z,5.43
2023-08-17T00:10:25.211Z,6.50
2023-08-17T00:12:54.309Z,5.70
2023-08-17T00:15:22.290Z,8.77
2023-08-17T00:17:50.151Z,7.70
2023-08-17T00:20:18.314Z,9.45
2023-08-17T00:22:46.083Z,8.18
2023-08-17T00:25:14.749Z,9.93
2023-08-17T00:27:42.501Z,8.27
2023-08-17T00:30:12.922Z,5.88
2023-08-17T00:32:40.834Z,7.50
2023-08-17T00:35:09.699Z,6.35
2023-08-17T00:37:37.560Z,6.32
2023-08-17T00:40:06.086Z,5.95
2023-08-17T00:42:33.938Z,6.93
2023-08-17T00:45:01.791Z,5.43
2023-08-17T00:47:31.294Z,5.45
2023-08-17T00:50:00.295Z,6.70
2023-08-17T00:52:28.368Z,6.75
2023-08-17T00:54:57.103Z,4.97
2023-08-17T00:57:25.593Z,7.78
2023-08-17T01:00:04.725Z,5.22
2023-08-17T01:02:36.644Z,4.55
2023-08-17T01:05:07.119Z,5.70
2023-08-17T01:07:35.144Z,3.65
2023-08-17T01:10:04.227Z,5.20
2023-08-17T01:12:33.736Z,4.47
2023-08-17T01:15:10.158Z,3.85
2023-08-17T01:17:45.063Z,4.60
2023-08-17T01:20:15.776Z,4.22
2023-08-17T01:22:47.126Z,3.42
2023-08-17T01:25:16.325Z,3.80
2023-08-17T01:27:46.280Z,4.32
2023-08-17T01:30:17.112Z,4.13
2023-08-17T01:32:53.266Z,6.32
2023-08-17T01:35:31.272Z,5.75
2023-08-17T01:38:04.847Z,6.88
2023-08-17T01:40:35.737Z,8.23
2023-08-17T01:43:04.947Z,6.35
2023-08-17T01:45:32.794Z,6.82
2023-08-17T01:48:03.349Z,6.95
2023-08-17T01:50:32.426Z,6.65
2023-08-17T01:53:00.240Z,7.47
2023-08-17T01:55:28.268Z,8.77
2023-08-17T01:57:57.412Z,7.72
2023-08-17T02:00:25.662Z,6.93
2023-08-17T02:02:53.406Z,7.38
2023-08-17T02:05:21.281Z,9.90
2023-08-17T02:07:49.067Z,8.43
2023-08-17T02:10:17.051Z,11.32
2023-08-17T02:12:44.847Z,9.55
2023-08-17T02:15:14.530Z,9.80
2023-08-17T02:17:42.376Z,10.30
2023-08-17T02:20:12.145Z,10.27
2023-08-17T02:22:39.924Z,10.52
2023-08-17T02:25:09.078Z,13.15
2023-08-17T02:27:36.919Z,12.00
2023-08-17T02:30:05.258Z,11.73
2023-08-17T02:32:34.408Z,10.95
2023-08-17T02:35:02.244Z,10.40
2023-08-17T02:37:29.998Z,10.70
2023-08-17T02:39:58.809Z,10.27
2023-08-17T02:42:26.720Z,10.85
2023-08-17T02:44:55.577Z,10.43
2023-08-17T02:47:23.436Z,13.15
2023-08-17T02:49:52.713Z,14.68
2023-08-17T02:52:20.511Z,10.32
2023-08-17T02:54:48.266Z,10.15
2023-08-17T02:57:16.106Z,11.15
2023-08-17T02:59:43.965Z,9.50
2023-08-17T03:02:11.708Z,10.10
2023-08-17T03:04:39.548Z,12.80
2023-08-17T03:07:08.846Z,10.88
2023-08-17T03:09:37.881Z,10.23
2023-08-17T03:12:06.489Z,9.15
2023-08-17T03:14:34.317Z,11.02
2023-08-17T03:17:02.075Z,9.50
2023-08-17T03:19:29.893Z,9.82
2023-08-17T03:21:57.732Z,10.85
2023-08-17T03:24:27.326Z,9.27
2023-08-17T03:26:55.485Z,9.65
2023-08-17T03:29:27.139Z,8.82
2023-08-17T03:31:56.886Z,9.15
2023-08-17T03:34:25.263Z,10.70
2023-08-17T03:36:53.075Z,8.98
2023-08-17T03:39:20.995Z,9.55
2023-08-17T03:41:50.550Z,9.40
2023-08-17T03:44:18.342Z,9.23
2023-08-17T03:46:46.088Z,9.93
2023-08-17T03:49:15.569Z,11.98
2023-08-17T03:51:43.396Z,10.45
2023-08-17T03:54:12.370Z,11.88
2023-08-17T03:56:40.175Z,11.48
2023-08-17T03:59:09.279Z,13.52
2023-08-17T04:01:37.103Z,11.82
2023-08-17T04:04:05.355Z,11.27
2023-08-17T04:06:33.360Z,11.40
2023-08-17T04:09:01.772Z,11.60
2023-08-17T04:11:30.507Z,10.65
2023-08-17T04:13:58.373Z,11.90
2023-08-17T04:16:27.617Z,11.93
2023-08-17T04:18:55.413Z,11.63
2023-08-17T04:21:23.229Z,12.25
2023-08-17T04:23:50.991Z,12.77
2023-08-17T04:26:18.733Z,13.52
2023-08-17T04:28:46.528Z,12.73
2023-08-17T04:31:18.175Z,13.20
2023-08-17T04:33:49.908Z,14.77
2023-08-17T04:36:17.740Z,14.43
2023-08-17T04:38:46.004Z,14.60
2023-08-17T04:41:13.806Z,14.57
2023-08-17T04:43:41.681Z,16.45
2023-08-17T04:46:09.475Z,16.80
2023-08-17T04:48:38.491Z,15.77
2023-08-17T04:51:08.021Z,15.52
2023-08-17T04:53:35.891Z,16.15
2023-08-17T04:56:04.785Z,15.30
2023-08-17T04:58:33.037Z,15.13
2023-08-17T05:01:01.478Z,16.10
2023-08-17T05:03:33.666Z,17.88
2023-08-17T05:06:02.659Z,17.83
2023-08-17T05:08:31.868Z,17.13
2023-08-17T05:10:59.668Z,15.68
2023-08-17T05:13:27.973Z,15.90
2023-08-17T05:15:59.046Z,15.35
2023-08-17T05:18:26.979Z,15.48
2023-08-17T05:20:55.943Z,14.82
2023-08-17T05:23:23.702Z,13.63
2023-08-17T05:25:53.529Z,15.15
2023-08-17T05:28:21.349Z,16.70
2023-08-17T05:30:51.015Z,15.00
2023-08-17T05:33:18.955Z,15.20
2023-08-17T05:35:47.359Z,14.68
2023-08-17T05:38:15.134Z,15.63
2023-08-17T05:40:43.236Z,16.25
2023-08-17T05:43:13.458Z,16.55
2023-08-17T05:45:41.233Z,16.58
2023-08-17T05:48:09.015Z,17.17
2023-08-17T05:50:36.816Z,16.27
2023-08-17T05:53:04.948Z,17.13
2023-08-17T05:55:32.707Z,16.95
2023-08-17T05:58:00.443Z,16.80
2023-08-17T06:00:29.595Z,16.35
2023-08-17T06:03:02.273Z,17.90
2023-08-17T06:05:30.708Z,18.02
2023-08-17T06:07:58.902Z,21.30
2023-08-17T06:10:27.210Z,18.38
2023-08-17T06:12:55.680Z,22.10
2023-08-17T06:15:23.863Z,20.77
2023-08-17T06:17:53.527Z,20.05
2023-08-17T06:20:21.535Z,18.20
2023-08-17T06:22:50.180Z,21.35
2023-08-17T06:25:18.090Z,18.88
2023-08-17T06:27:46.062Z,17.30
2023-08-17T06:30:14.589Z,19.23
2023-08-17T06:32:42.391Z,19.92
2023-08-17T06:35:11.841Z,17.85
2023-08-17T06:37:39.649Z,18.20
2023-08-17T06:40:10.212Z,18.70
2023-08-17T06:42:38.297Z,17.33
2023-08-17T06:45:08.033Z,16.33
2023-08-17T06:47:35.878Z,17.10
2023-08-17T06:50:04.415Z,17.23
2023-08-17T06:52:34.878Z,16.80
2023-08-17T06:55:02.635Z,15.95
2023-08-17T06:57:30.729Z,15.43
2023-08-17T06:59:58.572Z,14.23
2023-08-17T07:02:33.060Z,13.07
2023-08-17T07:05:07.697Z,16.23
2023-08-17T07:07:37.305Z,15.00
2023-08-17T07:10:05.522Z,13.73
2023-08-17T07:12:33.350Z,14.88
2023-08-17T07:15:01.167Z,16.52
2023-08-17T07:17:29.234Z,16.20
2023-08-17T07:20:14.815Z,14.43
2023-08-17T07:22:45.570Z,16.20
2023-08-17T07:25:13.385Z,18.20
2023-08-17T07:27:41.481Z,15.95
2023-08-17T07:30:10.286Z,15.70
2023-08-17T07:32:38.113Z,15.38
2023-08-17T07:35:06.958Z,17.23
2023-08-17T07:37:35.260Z,15.05
2023-08-17T07:40:05.568Z,17.23
2023-08-17T07:42:33.421Z,14.82
2023-08-17T07:45:02.348Z,14.77
2023-08-17T07:47:30.362Z,15.98
2023-08-17T07:49:58.945Z,16.08
2023-08-17T07:52:26.719Z,16.17
2023-08-17T07:54:54.554Z,15.95
2023-08-17T07:57:23.779Z,15.57
2023-08-17T07:59:52.212Z,17.25
2023-08-17T08:02:20.127Z,17.90
2023-08-17T08:04:47.970Z,15.18
2023-08-17T08:07:15.807Z,17.90
2023-08-17T08:09:43.728Z,15.80
2023-08-17T08:12:11.517Z,17.15
2023-08-17T08:14:40.664Z,15.95
2023-08-17T08:17:08.429Z,16.70
2023-08-17T08:19:37.287Z,16.70
2023-08-17T08:22:05.132Z,13.43
2023-08-17T08:24:38.294Z,15.45
2023-08-17T08:27:06.960Z,13.05
2023-08-17T08:29:35.684Z,13.90
2023-08-17T08:32:05.276Z,13.60
2023-08-17T08:34:33.375Z,14.93
2023-08-17T08:37:01.199Z,14.75
2023-08-17T08:39:29.086Z,14.95
2023-08-17T08:41:57.109Z,17.23
2023-08-17T08:44:25.093Z,13.10
2023-08-17T08:46:57.008Z,12.45
2023-08-17T08:49:27.183Z,13.85
2023-08-17T08:51:54.957Z,13.27
2023-08-17T08:54:24.194Z,14.98
2023-08-17T08:56:57.543Z,12.27
2023-08-17T08:59:28.217Z,12.02
2023-08-17T09:01:57.490Z,12.63
2023-08-17T09:04:27.926Z,11.10
2023-08-17T09:06:57.545Z,11.90
2023-08-17T09:09:29.465Z,13.05
2023-08-17T09:11:58.304Z,12.73
2023-08-17T09:14:26.196Z,11.50
2023-08-17T09:16:54.008Z,12.00
2023-08-17T09:19:22.271Z,10.90
2023-08-17T09:21:51.778Z,10.77
2023-08-17T09:24:19.653Z,10.95
2023-08-17T09:26:47.496Z,16.75
2023-08-17T09:29:19.731Z,16.60
2023-08-17T09:31:47.772Z,15.07
2023-08-17T09:34:17.008Z,17.52
2023-08-17T09:36:48.193Z,12.10
2023-08-17T09:39:19.059Z,14.48
2023-08-17T09:41:47.279Z,14.02
2023-08-17T09:44:15.105Z,13.20
2023-08-17T09:46:45.475Z,12.60
2023-08-17T09:49:13.469Z,14.07
2023-08-17T09:51:44.548Z,15.73
2023-08-17T09:54:22.196Z,14.55
2023-08-17T09:56:51.879Z,12.35
2023-08-17T09:59:19.985Z,13.95
2023-08-17T10:01:56.778Z,10.98
2023-08-17T10:04:25.727Z,11.63
2023-08-17T10:07:02.271Z,10.50
2023-08-17T10:09:38.302Z,9.82
2023-08-17T10:12:13.230Z,9.95
2023-08-17T10:14:48.569Z,9.57
2023-08-17T10:17:24.443Z,10.25
2023-08-17T10:19:56.258Z,9.73
2023-08-17T10:22:30.856Z,8.20
2023-08-17T10:25:02.422Z,10.85
2023-08-17T10:27:31.346Z,10.35
2023-08-17T10:30:01.326Z,11.20
2023-08-17T10:32:30.209Z,8.85
2023-08-17T10:34:59.778Z,9.52
2023-08-17T10:37:28.850Z,10.52
2023-08-17T10:39:56.705Z,9.90
2023-08-17T10:42:36.265Z,8.82
2023-08-17T10:48:23.046Z,10.50
2023-08-17T10:51:02.415Z,12.52
2023-08-17T10:53:36.710Z,12.65
2023-08-17T10:56:09.328Z,12.20
2023-08-17T10:58:38.656Z,12.10
2023-08-17T11:01:06.892Z,11.00
2023-08-17T11:03:37.466Z,11.30
2023-08-17T11:06:19.489Z,12.82
2023-08-17T11:08:56.730Z,11.80
2023-08-17T11:11:25.445Z,12.55
2023-08-17T11:13:57.898Z,13.65
2023-08-17T11:16:26.127Z,15.77
2023-08-17T11:18:56.690Z,17.63
2023-08-17T11:21:24.578Z,19.65
2023-08-17T11:23:52.444Z,12.55
2023-08-17T11:26:20.815Z,12.80
2023-08-17T11:28:49.134Z,12.48
2023-08-17T11:31:18.276Z,11.32
2023-08-17T11:33:47.939Z,12.75
2023-08-17T11:36:16.424Z,11.82
2023-08-17T11:38:45.435Z,12.07
2023-08-17T11:41:18.925Z,10.63
2023-08-17T11:43:47.992Z,10.02
2023-08-17T11:46:17.105Z,10.30
2023-08-17T11:48:46.354Z,10.48
2023-08-17T11:51:14.190Z,9.48
2023-08-17T11:53:42.218Z,9.18
2023-08-17T11:56:11.153Z,32.90
2023-08-17T11:58:43.683Z,12.82
2023-08-17T12:01:12.875Z,10.55
2023-08-17T12:03:42.469Z,7.57
2023-08-17T12:06:13.981Z,8.57
2023-08-17T12:08:47.078Z,9.00
2023-08-17T12:11:15.832Z,15.10
2023-08-17T12:13:43.838Z,11.00
2023-08-17T12:16:17.234Z,10.55
2023-08-17T12:18:46.474Z,11.55
2023-08-17T12:21:15.735Z,11.30
2023-08-17T12:23:43.750Z,11.10
2023-08-17T12:26:11.511Z,11.90
2023-08-17T12:28:42.222Z,10.60
2023-08-17T12:31:10.140Z,9.65
2023-08-17T12:33:37.956Z,8.77
2023-08-17T12:36:07.853Z,8.68
2023-08-17T12:38:39.073Z,9.05
2023-08-17T12:41:07.470Z,10.65
2023-08-17T12:43:35.416Z,13.68
2023-08-17T12:46:03.182Z,11.40
2023-08-17T12:48:36.251Z,12.55
2023-08-17T12:51:05.432Z,14.27
2023-08-17T12:53:33.446Z,13.65
2023-08-17T12:56:02.754Z,16.52
2023-08-17T12:58:30.568Z,14.32
2023-08-17T13:00:58.413Z,14.18
2023-08-17T13:03:26.499Z,16.20
2023-08-17T13:05:54.439Z,14.93
2023-08-17T13:08:22.398Z,14.57
2023-08-17T13:10:50.216Z,14.45
2023-08-17T13:13:19.366Z,13.13
2023-08-17T13:15:47.210Z,13.07
2023-08-17T13:18:15.029Z,13.27
2023-08-17T13:20:42.991Z,12.77
2023-08-17T13:23:10.875Z,11.55
2023-08-17T13:25:38.722Z,12.10
2023-08-17T13:28:07.034Z,10.52
2023-08-17T13:30:36.157Z,9.60
2023-08-17T13:33:04.046Z,10.20
2023-08-17T13:35:32.195Z,10.77
2023-08-17T13:38:00.019Z,11.18
2023-08-17T13:40:27.890Z,10.55
2023-08-17T13:42:55.676Z,10.40
2023-08-17T13:45:23.471Z,9.98
2023-08-17T13:47:52.698Z,11.07
2023-08-17T13:50:20.550Z,9.60
2023-08-17T13:52:48.872Z,9.93
2023-08-17T13:55:16.873Z,9.00
2023-08-17T13:57:44.753Z,9.57
2023-08-17T14:00:13.844Z,10.65
2023-08-17T14:02:41.705Z,11.63
2023-08-17T14:05:10.998Z,14.40
2023-08-17T14:07:38.769Z,14.80
2023-08-17T14:10:10.571Z,13.15
2023-08-17T14:12:41.727Z,12.15
2023-08-17T14:15:10.255Z,16.02
2023-08-17T14:17:38.105Z,13.98
2023-08-17T14:20:06.720Z,12.15
2023-08-17T14:22:35.900Z,12.70
2023-08-17T14:25:04.201Z,12.45
2023-08-17T14:27:31.948Z,12.07
2023-08-17T14:30:02.426Z,11.50
2023-08-17T14:32:34.695Z,11.32
2023-08-17T14:35:03.201Z,11.05
2023-08-17T14:37:31.457Z,11.10
2023-08-17T14:40:00.992Z,10.75
2023-08-17T14:42:30.636Z,11.05
2023-08-17T14:44:58.528Z,9.77
2023-08-17T14:47:26.602Z,10.52
2023-08-17T14:49:55.107Z,10.48
2023-08-17T14:52:22.961Z,9.48
2023-08-17T14:54:50.817Z,10.55
2023-08-17T14:57:20.046Z,10.48
2023-08-17T14:59:47.941Z,10.38
2023-08-17T15:04:48.914Z,10.18
2023-08-17T15:07:17.517Z,10.63
2023-08-17T15:09:45.345Z,11.13
2023-08-17T15:12:13.246Z,12.65
2023-08-17T15:14:42.418Z,11.18
2023-08-17T15:17:13.534Z,10.50
2023-08-17T15:19:41.635Z,12.32
2023-08-17T15:22:15.335Z,11.50
2023-08-17T15:24:44.793Z,12.30
2023-08-17T15:27:12.753Z,11.55
2023-08-17T15:29:42.195Z,10.70
2023-08-17T15:32:10.887Z,11.07
2023-08-17T15:34:38.812Z,10.95
2023-08-17T15:37:07.859Z,9.77
2023-08-17T15:39:35.786Z,10.38
2023-08-17T15:42:03.629Z,10.82
2023-08-17T15:44:33.418Z,10.98
2023-08-17T15:47:02.969Z,10.45
2023-08-17T15:49:30.905Z,9.98
2023-08-17T15:51:58.756Z,9.27
2023-08-17T15:54:35.812Z,10.32
2023-08-17T15:57:05.551Z,12.20
2023-08-17T15:59:33.666Z,11.10
2023-08-17T16:02:02.912Z,14.15
2023-08-17T16:04:30.770Z,11.93
2023-08-17T16:06:58.604Z,11.00
2023-08-17T16:09:30.740Z,11.15
2023-08-17T16:11:58.880Z,10.65
2023-08-17T16:14:26.844Z,11.02
2023-08-17T16:16:57.610Z,12.30
2023-08-17T16:19:27.380Z,11.48
2023-08-17T16:21:55.264Z,10.38
2023-08-17T16:26:54.067Z,10.48
2023-08-17T16:29:22.075Z,12.55
2023-08-17T16:32:01.898Z,12.73
2023-08-17T16:34:32.099Z,11.63
2023-08-17T16:37:00.258Z,12.77
2023-08-17T16:39:29.043Z,13.10
2023-08-17T16:41:58.565Z,11.90
2023-08-17T16:44:28.365Z,11.40
2023-08-17T16:46:56.644Z,12.43
2023-08-17T16:49:29.741Z,12.32
2023-08-17T16:52:00.521Z,12.57
2023-08-17T16:54:28.477Z,12.73
2023-08-17T16:56:56.320Z,12.82
2023-08-17T16:59:24.214Z,14.23
2023-08-17T17:01:52.026Z,13.38
2023-08-17T17:04:19.979Z,15.90
2023-08-17T17:06:47.888Z,13.80
2023-08-17T17:09:17.090Z,14.35
2023-08-17T17:11:45.023Z,13.40
2023-08-17T17:14:12.879Z,15.32
2023-08-17T17:16:40.696Z,14.48
2023-08-17T17:19:08.905Z,15.23
2023-08-17T17:21:36.955Z,13.48
2023-08-17T17:24:05.380Z,15.43
2023-08-17T17:26:37.468Z,15.00
2023-08-17T17:29:05.749Z,13.95
2023-08-17T17:31:33.700Z,14.27
2023-08-17T17:34:02.740Z,15.10
2023-08-17T17:36:31.424Z,15.40
2023-08-17T17:38:59.373Z,15.98
2023-08-17T17:41:27.309Z,15.80
2023-08-17T17:43:56.681Z,16.55
2023-08-17T17:46:24.685Z,16.55
2023-08-17T17:48:53.926Z,16.38
2023-08-17T17:51:22.476Z,15.43
2023-08-17T17:53:50.545Z,15.73
2023-08-17T17:56:18.413Z,20.73
2023-08-17T17:58:46.240Z,16.10
2023-08-17T18:01:15.525Z,15.65
2023-08-17T18:06:11.416Z,17.02
2023-08-17T18:08:39.365Z,17.95
2023-08-17T18:11:07.266Z,17.02
2023-08-17T18:13:35.089Z,18.17
2023-08-17T18:16:02.959Z,19.52
2023-08-17T18:18:33.545Z,18.38
2023-08-17T18:21:01.513Z,21.45
2023-08-17T18:23:29.902Z,19.77
2023-08-17T18:25:57.732Z,20.60
2023-08-17T18:28:25.659Z,18.60
2023-08-17T18:30:53.740Z,20.60
2023-08-17T18:33:21.620Z,19.42
2023-08-17T18:35:50.840Z,19.83
2023-08-17T18:38:18.708Z,19.58
2023-08-17T18:40:47.060Z,17.38
2023-08-17T18:43:14.876Z,19.63
2023-08-17T18:45:42.751Z,19.02
2023-08-17T18:48:10.584Z,19.63
2023-08-17T18:50:38.505Z,19.63
2023-08-17T18:53:07.614Z,18.42
2023-08-17T18:55:35.445Z,19.60
2023-08-17T18:58:03.282Z,17.95
2023-08-17T19:00:31.106Z,17.33
2023-08-17T19:02:59.041Z,18.00
2023-08-17T19:05:27.016Z,18.35
2023-08-17T19:07:54.979Z,15.15
2023-08-17T19:10:24.213Z,14.60
2023-08-17T19:12:52.066Z,14.88
2023-08-17T19:15:19.984Z,13.23
2023-08-17T19:17:47.992Z,14.20
2023-08-17T19:20:15.867Z,13.20
2023-08-17T19:22:43.859Z,12.95
2023-08-17T19:25:11.856Z,16.98
2023-08-17T19:27:41.433Z,14.20
2023-08-17T19:30:11.586Z,12.77
2023-08-17T19:32:41.548Z,13.30
2023-08-17T19:35:10.113Z,13.02
2023-08-17T19:37:38.042Z,15.80
2023-08-17T19:40:07.380Z,13.70
2023-08-17T19:42:35.314Z,16.55
2023-08-17T19:45:05.534Z,16.40
2023-08-17T19:47:33.458Z,13.68
2023-08-17T19:50:01.365Z,14.55
2023-08-17T19:52:29.298Z,14.45
2023-08-17T19:54:57.768Z,16.40
2023-08-17T19:57:26.684Z,12.20
2023-08-17T19:59:54.818Z,12.25
2023-08-17T20:02:24.114Z,11.77
2023-08-17T20:04:52.044Z,12.07
2023-08-17T20:07:19.849Z,11.40
2023-08-17T20:09:47.734Z,13.45
2023-08-17T20:12:15.558Z,11.65
2023-08-17T20:14:43.636Z,11.50
2023-08-17T20:17:11.915Z,10.90
2023-08-17T20:19:41.117Z,13.95
2023-08-17T20:22:09.193Z,12.57
2023-08-17T20:24:37.031Z,11.38
2023-08-17T20:27:06.364Z,11.27
2023-08-17T20:29:34.397Z,12.27
2023-08-17T20:32:02.316Z,12.18
2023-08-17T20:34:30.356Z,11.80
2023-08-17T20:36:59.570Z,11.57
2023-08-17T20:39:27.415Z,11.95
2023-08-17T20:41:55.994Z,15.23
2023-08-17T20:44:23.839Z,12.35
2023-08-17T20:46:52.287Z,13.77
2023-08-17T20:49:21.785Z,11.75
2023-08-17T20:51:51.317Z,13.45
2023-08-17T20:54:20.665Z,14.38
2023-08-17T20:56:48.552Z,14.63
2023-08-17T20:59:16.636Z,15.68
2023-08-17T21:01:44.587Z,14.55
2023-08-17T21:04:12.385Z,14.20
2023-08-17T21:06:42.263Z,15.25
2023-08-17T21:09:10.924Z,15.10
2023-08-17T21:11:40.177Z,14.35
2023-08-17T21:14:07.999Z,14.45
2023-08-17T21:16:37.204Z,15.38
2023-08-17T21:19:06.629Z,19.05
2023-08-17T21:21:34.745Z,14.05
2023-08-17T21:24:02.688Z,13.57
2023-08-17T21:26:30.555Z,16.73
2023-08-17T21:28:59.759Z,12.40
2023-08-17T21:31:27.697Z,14.60
2023-08-17T21:33:55.604Z,14.68
2023-08-17T21:36:23.592Z,14.77
2023-08-17T21:38:51.446Z,14.63
2023-08-17T21:41:19.317Z,19.02
2023-08-17T21:43:47.220Z,15.00
2023-08-17T21:46:16.549Z,14.82
2023-08-17T21:48:44.408Z,14.45
2023-08-17T21:51:12.255Z,15.45
2023-08-17T21:53:40.490Z,14.68
2023-08-17T21:56:08.380Z,15.02
2023-08-17T21:58:36.204Z,14.63
2023-08-17T22:01:04.051Z,15.93
2023-08-17T22:03:33.445Z,14.07
2023-08-17T22:06:06.699Z,15.85
2023-08-17T22:08:34.742Z,15.70
2023-08-17T22:11:02.734Z,15.40
2023-08-17T22:13:30.572Z,16.38
2023-08-17T22:15:58.641Z,16.42
2023-08-17T22:18:26.454Z,17.10
2023-08-17T22:20:55.636Z,16.65
2023-08-17T22:23:23.536Z,18.02
2023-08-17T22:25:51.404Z,16.52
2023-08-17T22:28:19.266Z,17.23
2023-08-17T22:30:47.173Z,15.95
2023-08-17T22:33:15.124Z,15.70
2023-08-17T22:35:42.906Z,17.83
2023-08-17T22:38:12.126Z,16.42
2023-08-17T22:40:39.906Z,19.05
2023-08-17T22:43:07.770Z,18.00
2023-08-17T22:45:35.660Z,18.20
2023-08-17T22:48:03.558Z,17.15
2023-08-17T22:50:31.511Z,15.38
2023-08-17T22:52:59.285Z,19.17
2023-08-17T22:55:28.938Z,18.65
2023-08-17T22:57:56.832Z,18.45
2023-08-17T23:00:24.754Z,16.70
2023-08-17T23:02:52.668Z,18.15
2023-08-17T23:05:20.592Z,18.00
2023-08-17T23:07:48.485Z,19.60
2023-08-17T23:10:16.308Z,16.90
2023-08-17T23:12:45.606Z,19.00
2023-08-17T23:15:13.494Z,17.63
2023-08-17T23:17:41.305Z,18.33
2023-08-17T23:20:10.154Z,16.88
2023-08-17T23:22:38.049Z,20.08
2023-08-17T23:25:06.850Z,18.95
2023-08-17T23:27:34.764Z,18.67
2023-08-17T23:30:04.433Z,15.23
2023-08-17T23:32:32.488Z,15.90
2023-08-17T23:35:00.444Z,16.60
2023-08-17T23:37:28.597Z,16.80
2023-08-17T23:39:56.661Z,17.08
2023-08-17T23:42:24.498Z,15.98
2023-08-17T23:44:52.407Z,16.20
2023-08-17T23:47:21.624Z,15.98
2023-08-17T23:49:49.443Z,16.85
2023-08-17T23:52:17.256Z,14.57
2023-08-17T23:54:45.101Z,13.65
2023-08-17T23:57:13.078Z,15.35
2023-08-17T23:59:40.929Z,16.35
